createdAt,value
2023-03-26T00:01:41.643Z,14.12
2023-03-26T00:04:10.661Z,14.04
2023-03-26T00:06:40.425Z,14.09
2023-03-26T00:09:13.425Z,14.13
2023-03-26T00:11:43.381Z,14.16
2023-03-26T00:14:13.970Z,14.20
2023-03-26T00:16:42.772Z,13.98
2023-03-26T00:19:12.726Z,14.00
2023-03-26T00:21:41.649Z,13.86
2023-03-26T00:24:14.985Z,13.92
2023-03-26T00:26:44.812Z,13.77
2023-03-26T00:29:13.850Z,13.85
2023-03-26T00:31:45.919Z,14.03
2023-03-26T00:34:18.499Z,13.94
2023-03-26T00:36:47.484Z,13.85
2023-03-26T00:39:17.777Z,13.81
2023-03-26T00:41:46.595Z,13.86
2023-03-26T00:44:16.247Z,13.76
2023-03-26T00:46:44.726Z,13.84
2023-03-26T00:49:14.816Z,13.80
2023-03-26T00:51:43.526Z,13.78
2023-03-26T00:54:12.704Z,13.94
2023-03-26T00:56:41.284Z,13.86
2023-03-26T00:59:09.771Z,13.93
2023-03-26T01:01:38.313Z,13.64
2023-03-26T01:04:31.921Z,13.78
2023-03-26T01:07:22.577Z,13.77
2023-03-26T01:09:51.709Z,13.71
2023-03-26T01:12:24.017Z,13.78
2023-03-26T01:14:56.731Z,13.77
2023-03-26T01:17:26.429Z,13.81
2023-03-26T01:20:05.635Z,13.86
2023-03-26T01:22:36.616Z,13.76
2023-03-26T01:25:07.226Z,13.81
2023-03-26T01:27:43.077Z,13.94
2023-03-26T01:30:34.758Z,13.85
2023-03-26T01:33:16.177Z,13.90
2023-03-26T01:36:07.755Z,14.04
2023-03-26T01:38:53.625Z,13.96
2023-03-26T01:41:41.859Z,13.90
2023-03-26T01:44:21.111Z,13.62
2023-03-26T01:46:51.264Z,13.31
2023-03-26T01:49:19.754Z,13.35
2023-03-26T01:51:48.372Z,13.36
2023-03-26T01:54:22.039Z,13.35
2023-03-26T01:56:53.532Z,13.38
2023-03-26T01:59:50.483Z,13.37
2023-03-26T02:02:18.974Z,13.19
2023-03-26T02:04:53.850Z,13.17
2023-03-26T02:07:39.622Z,13.21
2023-03-26T02:10:17.387Z,13.17
2023-03-26T02:12:46.121Z,13.19
2023-03-26T02:15:14.657Z,13.14
2023-03-26T02:17:43.301Z,13.21
2023-03-26T02:20:14.523Z,13.14
2023-03-26T02:22:46.064Z,13.15
2023-03-26T02:25:18.902Z,13.25
2023-03-26T02:27:49.609Z,13.12
2023-03-26T02:30:25.559Z,13.23
2023-03-26T02:32:54.416Z,13.24
2023-03-26T02:35:23.131Z,13.10
2023-03-26T02:37:51.639Z,12.97
2023-03-26T02:40:22.237Z,12.94
2023-03-26T02:42:50.859Z,13.04
2023-03-26T02:45:19.268Z,13.14
2023-03-26T02:47:47.697Z,13.18
2023-03-26T02:50:16.439Z,13.14
2023-03-26T02:52:45.333Z,13.17
2023-03-26T02:55:13.851Z,13.16
2023-03-26T02:57:42.408Z,13.22
2023-03-26T03:00:14.294Z,13.28
2023-03-26T03:02:44.472Z,13.20
2023-03-26T03:05:13.952Z,13.12
2023-03-26T03:07:42.370Z,13.24
2023-03-26T03:10:13.774Z,13.35
2023-03-26T03:12:42.688Z,13.37
2023-03-26T03:15:11.937Z,13.54
2023-03-26T03:17:41.470Z,13.82
2023-03-26T03:20:10.249Z,13.88
2023-03-26T03:22:38.803Z,13.73
2023-03-26T03:25:14.320Z,13.87
2023-03-26T03:27:43.786Z,13.87
2023-03-26T03:30:13.627Z,13.98
2023-03-26T03:32:42.252Z,13.96
2023-03-26T03:35:10.836Z,13.84
2023-03-26T03:37:39.390Z,13.80
2023-03-26T03:40:10.993Z,13.91
2023-03-26T03:42:39.472Z,13.73
2023-03-26T03:45:08.629Z,13.85
2023-03-26T03:47:37.197Z,13.85
2023-03-26T03:50:06.650Z,13.93
2023-03-26T03:52:35.185Z,13.91
2023-03-26T03:55:03.969Z,13.88
2023-03-26T03:57:33.513Z,13.86
2023-03-26T04:00:02.816Z,13.87
2023-03-26T04:02:34.954Z,13.92
2023-03-26T04:05:06.020Z,14.03
2023-03-26T04:07:34.567Z,13.90
2023-03-26T04:10:04.091Z,13.87
2023-03-26T04:12:32.608Z,13.95
2023-03-26T04:15:01.148Z,13.79
2023-03-26T04:17:30.616Z,13.71
2023-03-26T04:20:10.342Z,13.68
2023-03-26T04:22:39.730Z,13.61
2023-03-26T04:25:09.902Z,13.52
2023-03-26T04:27:41.795Z,13.51
2023-03-26T04:30:15.556Z,13.51
2023-03-26T04:32:45.011Z,13.54
2023-03-26T04:35:16.652Z,13.55
2023-03-26T04:37:46.107Z,13.46
2023-03-26T04:40:21.955Z,13.46
2023-03-26T04:42:50.443Z,13.36
2023-03-26T04:45:22.712Z,13.26
2023-03-26T04:47:51.512Z,13.26
2023-03-26T04:50:20.026Z,13.31
2023-03-26T04:52:48.687Z,13.46
2023-03-26T04:55:47.073Z,13.69
2023-03-26T04:58:16.077Z,13.60
2023-03-26T05:00:44.569Z,13.56
2023-03-26T05:03:13.971Z,13.57
2023-03-26T05:05:42.771Z,13.52
2023-03-26T05:08:11.350Z,13.46
2023-03-26T05:10:39.770Z,13.57
2023-03-26T05:13:08.347Z,13.59
2023-03-26T05:15:36.743Z,13.62
2023-03-26T05:18:05.334Z,13.69
2023-03-26T05:20:34.357Z,13.56
2023-03-26T05:23:02.917Z,13.51
2023-03-26T05:25:31.690Z,13.48
2023-03-26T05:28:01.053Z,13.57
2023-03-26T05:30:29.578Z,13.56
2023-03-26T05:32:58.051Z,13.68
2023-03-26T05:35:26.613Z,13.59
2023-03-26T05:37:55.104Z,13.49
2023-03-26T05:40:23.572Z,13.41
2023-03-26T05:42:51.981Z,13.37
2023-03-26T05:45:22.383Z,13.40
2023-03-26T05:47:51.298Z,13.30
2023-03-26T05:50:19.921Z,13.33
2023-03-26T05:52:48.387Z,13.30
2023-03-26T05:55:18.414Z,13.35
2023-03-26T05:57:46.873Z,13.42
2023-03-26T06:00:16.375Z,13.34
2023-03-26T06:02:46.651Z,13.35
2023-03-26T06:05:15.122Z,13.24
2023-03-26T06:07:43.572Z,13.16
2023-03-26T06:10:18.484Z,13.25
2023-03-26T06:12:47.551Z,13.28
2023-03-26T06:15:16.253Z,13.29
2023-03-26T06:17:44.853Z,13.19
2023-03-26T06:20:13.690Z,13.06
2023-03-26T06:22:42.119Z,13.15
2023-03-26T06:25:10.694Z,13.07
2023-03-26T06:27:39.382Z,13.06
2023-03-26T06:30:08.496Z,12.97
2023-03-26T06:32:36.983Z,12.96
2023-03-26T06:35:06.367Z,12.93
2023-03-26T06:37:34.931Z,13.03
2023-03-26T06:40:04.459Z,12.97
2023-03-26T06:43:08.051Z,13.01
2023-03-26T06:45:21.879Z,12.69
2023-03-26T06:47:50.287Z,12.75
2023-03-26T06:50:19.410Z,12.82
2023-03-26T06:52:47.827Z,12.79
2023-03-26T06:55:16.510Z,12.83
2023-03-26T06:57:49.086Z,12.90
2023-03-26T07:00:18.976Z,12.90
2023-03-26T07:02:47.680Z,12.88
2023-03-26T07:05:16.339Z,12.91
2023-03-26T07:07:45.972Z,12.89
2023-03-26T07:10:15.167Z,12.93
2023-03-26T07:12:43.980Z,12.93
2023-03-26T07:15:12.368Z,12.94
2023-03-26T07:17:40.877Z,13.04
2023-03-26T07:20:10.749Z,13.09
2023-03-26T07:22:39.583Z,13.27
2023-03-26T07:25:09.074Z,13.32
2023-03-26T07:27:50.883Z,13.26
2023-03-26T07:30:34.384Z,13.25
2023-03-26T07:33:14.330Z,13.08
2023-03-26T07:35:56.855Z,13.01
2023-03-26T07:38:54.960Z,13.13
2023-03-26T07:41:35.894Z,13.11
2023-03-26T07:44:41.993Z,13.19
2023-03-26T07:47:26.159Z,13.10
2023-03-26T07:49:57.831Z,13.04
2023-03-26T07:52:27.517Z,13.09
2023-03-26T07:54:56.701Z,13.19
2023-03-26T07:57:31.271Z,13.21
2023-03-26T08:00:12.177Z,13.44
2023-03-26T08:02:53.098Z,13.44
2023-03-26T08:05:30.434Z,13.43
2023-03-26T08:08:07.951Z,13.32
2023-03-26T08:11:23.150Z,13.41
2023-03-26T08:14:01.088Z,13.52
2023-03-26T08:16:54.270Z,13.52
2023-03-26T08:19:40.961Z,13.58
2023-03-26T08:22:26.382Z,13.59
2023-03-26T08:25:47.122Z,13.53
2023-03-26T08:28:35.343Z,13.42
2023-03-26T08:31:04.507Z,13.39
2023-03-26T08:33:35.967Z,13.38
2023-03-26T08:36:06.060Z,13.43
2023-03-26T08:38:34.632Z,13.41
2023-03-26T08:41:12.268Z,13.55
2023-03-26T08:43:58.214Z,13.59
2023-03-26T08:46:55.540Z,13.78
2023-03-26T08:49:36.028Z,13.77
2023-03-26T08:52:25.867Z,13.71
2023-03-26T08:55:14.586Z,13.58
2023-03-26T08:58:09.228Z,13.58
2023-03-26T09:00:58.379Z,13.61
2023-03-26T09:04:22.525Z,13.63
2023-03-26T09:07:37.910Z,13.64
2023-03-26T09:10:24.816Z,13.45
2023-03-26T09:13:14.669Z,13.71
2023-03-26T09:16:14.851Z,13.80
2023-03-26T09:19:25.067Z,13.83
2023-03-26T09:22:14.044Z,13.74
2023-03-26T09:25:01.084Z,13.56
2023-03-26T09:27:48.379Z,13.69
2023-03-26T09:30:54.846Z,13.74
2023-03-26T09:33:42.700Z,13.73
2023-03-26T09:36:40.894Z,13.81
2023-03-26T09:39:15.789Z,13.80
2023-03-26T09:42:06.111Z,13.94
2023-03-26T09:45:08.910Z,13.99
2023-03-26T09:47:44.795Z,13.94
2023-03-26T09:50:29.587Z,13.84
2023-03-26T09:53:26.787Z,13.77
2023-03-26T09:56:23.477Z,13.79
2023-03-26T09:59:01.118Z,13.54
2023-03-26T10:02:12.216Z,13.62
2023-03-26T10:05:04.791Z,13.55
2023-03-26T10:07:50.326Z,13.85
2023-03-26T10:10:41.634Z,13.95
2023-03-26T10:13:37.617Z,14.17
2023-03-26T10:16:26.155Z,14.44
2023-03-26T10:19:26.118Z,14.49
2023-03-26T10:22:24.603Z,14.25
2023-03-26T10:25:22.318Z,14.09
2023-03-26T10:28:00.212Z,14.08
2023-03-26T10:30:56.658Z,13.95
2023-03-26T10:33:36.712Z,13.90
2023-03-26T10:36:27.605Z,13.71
2023-03-26T10:39:02.010Z,13.82
2023-03-26T10:41:55.307Z,14.01
2023-03-26T10:44:45.817Z,13.80
2023-03-26T10:47:20.177Z,13.84
2023-03-26T10:50:10.107Z,13.85
2023-03-26T10:52:44.155Z,13.85
2023-03-26T10:55:27.543Z,13.80
2023-03-26T10:58:00.623Z,13.90
2023-03-26T11:00:30.103Z,13.96
2023-03-26T11:03:27.821Z,14.25
2023-03-26T11:06:13.520Z,14.43
2023-03-26T11:08:44.810Z,14.48
2023-03-26T11:11:38.818Z,14.52
2023-03-26T11:14:35.263Z,14.61
2023-03-26T11:17:40.198Z,14.71
2023-03-26T11:20:24.257Z,14.63
2023-03-26T11:23:11.852Z,14.37
2023-03-26T11:25:57.546Z,14.42
2023-03-26T11:28:32.145Z,14.41
2023-03-26T11:31:22.515Z,14.14
2023-03-26T11:33:56.924Z,14.13
2023-03-26T11:36:31.629Z,14.19
2023-03-26T11:39:04.629Z,14.03
2023-03-26T11:41:33.214Z,14.14
2023-03-26T11:44:10.985Z,14.03
2023-03-26T11:46:44.272Z,14.09
2023-03-26T11:49:17.603Z,14.14
2023-03-26T11:51:47.869Z,13.91
2023-03-26T11:54:17.796Z,13.90
2023-03-26T11:57:04.558Z,14.12
2023-03-26T11:59:57.944Z,13.44
2023-03-26T12:02:38.065Z,13.40
2023-03-26T12:05:46.909Z,13.73
2023-03-26T12:08:26.650Z,14.09
2023-03-26T12:11:07.083Z,13.78
2023-03-26T12:13:41.851Z,13.57
2023-03-26T12:16:14.492Z,13.34
2023-03-26T12:18:45.526Z,13.80
2023-03-26T12:21:19.215Z,13.69
2023-03-26T12:23:58.821Z,13.91
2023-03-26T12:26:34.737Z,14.18
2023-03-26T12:29:12.566Z,14.13
2023-03-26T12:31:50.339Z,13.70
2023-03-26T12:34:21.094Z,13.19
2023-03-26T12:36:55.251Z,12.86
2023-03-26T12:40:07.066Z,13.57
2023-03-26T12:44:46.164Z,13.99
2023-03-26T12:45:48.401Z,14.23
2023-03-26T12:48:37.697Z,14.11
2023-03-26T12:51:23.632Z,14.23
2023-03-26T12:54:02.172Z,14.21
2023-03-26T12:56:38.720Z,14.03
2023-03-26T12:59:22.184Z,13.72
2023-03-26T13:02:34.391Z,13.65
2023-03-26T13:05:39.318Z,13.93
2023-03-26T13:08:39.447Z,13.80
2023-03-26T13:11:23.088Z,13.60
2023-03-26T13:14:13.380Z,13.89
2023-03-26T13:16:44.793Z,13.54
2023-03-26T13:19:22.496Z,14.14
2023-03-26T13:22:09.265Z,14.35
2023-03-26T13:24:44.041Z,14.16
2023-03-26T13:27:44.548Z,14.20
2023-03-26T13:30:54.659Z,14.45
2023-03-26T13:33:34.296Z,14.70
2023-03-26T13:36:24.470Z,14.96
2023-03-26T13:39:03.182Z,14.28
2023-03-26T13:41:56.287Z,14.90
2023-03-26T13:45:05.102Z,14.53
2023-03-26T13:47:38.480Z,14.63
2023-03-26T13:50:40.833Z,14.86
2023-03-26T13:53:24.366Z,13.93
2023-03-26T13:55:59.212Z,14.20
2023-03-26T13:59:03.527Z,13.94
2023-03-26T14:01:36.284Z,14.22
2023-03-26T14:04:10.706Z,14.50
2023-03-26T14:06:57.471Z,13.85
2023-03-26T14:09:38.214Z,14.21
2023-03-26T14:12:22.148Z,14.18
2023-03-26T14:14:56.921Z,13.18
2023-03-26T14:17:33.081Z,11.54
2023-03-26T14:20:42.413Z,12.64
2023-03-26T14:23:16.946Z,12.99
2023-03-26T14:26:04.258Z,13.19
2023-03-26T14:28:51.537Z,13.31
2023-03-26T14:32:01.057Z,13.64
2023-03-26T14:34:54.384Z,13.65
2023-03-26T14:37:41.777Z,12.92
2023-03-26T14:40:15.011Z,12.43
2023-03-26T14:43:05.166Z,12.59
2023-03-26T14:45:58.692Z,13.16
2023-03-26T14:48:33.367Z,12.48
2023-03-26T14:51:19.216Z,12.23
2023-03-26T14:53:52.837Z,12.15
2023-03-26T14:56:24.427Z,12.69
2023-03-26T14:59:31.226Z,12.23
2023-03-26T15:02:02.852Z,12.78
2023-03-26T15:04:49.902Z,13.11
2023-03-26T15:07:37.118Z,12.64
2023-03-26T15:10:22.688Z,12.33
2023-03-26T15:13:32.635Z,12.55
2023-03-26T15:16:11.800Z,12.51
2023-03-26T15:19:04.042Z,11.85
2023-03-26T15:22:12.881Z,12.31
2023-03-26T15:25:15.701Z,12.68
2023-03-26T15:27:57.891Z,12.50
2023-03-26T15:30:53.798Z,12.36
2023-03-26T15:33:54.354Z,12.60
2023-03-26T15:36:44.747Z,12.95
2023-03-26T15:39:38.126Z,13.36
2023-03-26T15:42:21.898Z,11.96
2023-03-26T15:44:54.031Z,12.86
2023-03-26T15:47:31.472Z,11.97
2023-03-26T15:50:29.504Z,12.54
2023-03-26T15:53:01.154Z,12.94
2023-03-26T15:55:36.647Z,12.70
2023-03-26T15:58:12.191Z,13.11
2023-03-26T16:00:57.199Z,13.39
2023-03-26T16:03:39.611Z,12.76
2023-03-26T16:06:27.962Z,13.08
2023-03-26T16:09:32.520Z,13.22
2023-03-26T16:12:27.025Z,12.87
2023-03-26T16:15:09.430Z,11.90
2023-03-26T16:17:56.782Z,12.10
2023-03-26T16:20:34.930Z,11.93
2023-03-26T16:23:06.165Z,12.02
2023-03-26T16:25:52.777Z,12.22
2023-03-26T16:28:33.945Z,13.02
2023-03-26T16:31:34.758Z,12.25
2023-03-26T16:34:35.882Z,13.27
2023-03-26T16:37:25.917Z,12.77
2023-03-26T16:39:54.748Z,12.22
2023-03-26T16:42:38.546Z,11.73
2023-03-26T16:45:35.680Z,12.28
2023-03-26T16:48:24.359Z,12.68
2023-03-26T16:51:24.412Z,12.33
2023-03-26T16:54:12.991Z,12.44
2023-03-26T16:56:44.434Z,12.34
2023-03-26T17:00:06.765Z,12.21
2023-03-26T17:02:49.162Z,12.14
2023-03-26T17:05:34.335Z,11.62
2023-03-26T17:08:36.440Z,11.12
2023-03-26T17:11:21.545Z,11.67
2023-03-26T17:13:52.895Z,12.11
2023-03-26T17:16:32.365Z,12.05
2023-03-26T17:19:19.010Z,11.08
2023-03-26T17:22:00.774Z,11.25
2023-03-26T17:24:47.872Z,12.00
2023-03-26T17:27:34.146Z,11.16
2023-03-26T17:30:40.394Z,11.14
2023-03-26T17:33:35.234Z,11.57
2023-03-26T17:36:13.036Z,11.19
2023-03-26T17:38:47.515Z,10.65
2023-03-26T17:42:08.296Z,11.19
2023-03-26T17:44:42.081Z,10.67
2023-03-26T17:47:20.840Z,11.48
2023-03-26T17:49:53.590Z,12.02
2023-03-26T17:52:41.578Z,10.76
2023-03-26T17:55:17.073Z,10.46
2023-03-26T17:57:53.291Z,10.79
2023-03-26T18:00:25.134Z,11.31
2023-03-26T18:03:01.402Z,11.43
2023-03-26T18:05:30.955Z,10.76
2023-03-26T18:08:14.709Z,11.14
2023-03-26T18:10:43.224Z,11.35
2023-03-26T18:13:42.610Z,11.39
2023-03-26T18:16:25.397Z,11.17
2023-03-26T18:19:00.700Z,11.15
2023-03-26T18:21:35.926Z,10.66
2023-03-26T18:24:14.138Z,10.33
2023-03-26T18:26:46.972Z,11.07
2023-03-26T18:29:22.056Z,10.26
2023-03-26T18:32:02.651Z,10.46
2023-03-26T18:34:34.018Z,9.79
2023-03-26T18:37:17.841Z,10.21
2023-03-26T18:40:12.853Z,9.93
2023-03-26T18:42:45.645Z,10.26
2023-03-26T18:45:23.467Z,10.06
2023-03-26T18:47:54.672Z,10.82
2023-03-26T18:50:28.102Z,10.72
2023-03-26T18:52:59.414Z,10.62
2023-03-26T18:55:29.587Z,10.53
2023-03-26T18:57:58.197Z,10.61
2023-03-26T19:00:30.221Z,10.68
2023-03-26T19:03:07.332Z,11.06
2023-03-26T19:05:37.401Z,10.79
2023-03-26T19:08:06.639Z,10.26
2023-03-26T19:10:36.725Z,10.75
2023-03-26T19:13:05.452Z,10.85
2023-03-26T19:15:35.789Z,9.89
2023-03-26T19:18:09.671Z,10.77
2023-03-26T19:20:50.797Z,10.24
2023-03-26T19:23:22.405Z,9.51
2023-03-26T19:25:56.296Z,9.71
2023-03-26T19:28:26.210Z,10.11
2023-03-26T19:30:58.370Z,10.29
2023-03-26T19:33:34.804Z,9.43
2023-03-26T19:36:29.622Z,9.15
2023-03-26T19:39:01.062Z,9.20
2023-03-26T19:41:39.126Z,8.90
2023-03-26T19:44:16.630Z,9.52
2023-03-26T19:46:53.820Z,9.61
2023-03-26T19:49:42.218Z,9.44
2023-03-26T19:52:19.231Z,9.24
2023-03-26T19:55:00.191Z,8.90
2023-03-26T19:57:34.656Z,9.34
2023-03-26T20:00:09.198Z,8.99
2023-03-26T20:02:37.905Z,8.54
2023-03-26T20:05:18.139Z,9.45
2023-03-26T20:07:46.657Z,8.91
2023-03-26T20:10:15.861Z,9.53
2023-03-26T20:12:44.795Z,9.24
2023-03-26T20:15:19.291Z,9.22
2023-03-26T20:17:54.387Z,9.45
2023-03-26T20:20:27.641Z,9.13
2023-03-26T20:22:56.907Z,9.50
2023-03-26T20:25:36.082Z,9.07
2023-03-26T20:28:04.717Z,9.47
2023-03-26T20:30:37.731Z,9.40
2023-03-26T20:33:14.911Z,9.40
2023-03-26T20:35:43.599Z,9.74
2023-03-26T20:38:12.333Z,9.29
2023-03-26T20:40:44.669Z,9.70
2023-03-26T20:43:16.179Z,9.19
2023-03-26T20:45:45.726Z,9.05
2023-03-26T20:48:15.025Z,9.30
2023-03-26T20:50:50.725Z,9.55
2023-03-26T20:53:20.423Z,9.74
2023-03-26T20:55:51.523Z,9.35
2023-03-26T20:58:31.451Z,9.20
2023-03-26T21:01:01.847Z,8.75
2023-03-26T21:03:30.897Z,8.78
2023-03-26T21:06:05.175Z,9.43
2023-03-26T21:08:43.508Z,8.74
2023-03-26T21:12:00.254Z,8.68
2023-03-26T21:14:55.816Z,9.03
2023-03-26T21:17:30.046Z,9.12
2023-03-26T21:20:08.222Z,8.45
2023-03-26T21:23:03.992Z,9.04
2023-03-26T21:25:48.854Z,8.83
2023-03-26T21:28:41.379Z,9.04
2023-03-26T21:31:20.971Z,8.15
2023-03-26T21:33:50.759Z,9.01
2023-03-26T21:36:23.067Z,8.95
2023-03-26T21:38:54.633Z,9.02
2023-03-26T21:41:36.475Z,8.67
2023-03-26T21:44:05.386Z,8.66
2023-03-26T21:46:34.301Z,8.04
2023-03-26T21:49:03.521Z,8.49
2023-03-26T21:51:34.032Z,9.06
2023-03-26T21:54:03.764Z,8.87
2023-03-26T21:56:58.311Z,8.95
2023-03-26T21:59:45.660Z,8.47
2023-03-26T22:02:20.812Z,8.40
2023-03-26T22:05:01.058Z,8.32
2023-03-26T22:07:58.605Z,8.85
2023-03-26T22:10:29.470Z,8.56
2023-03-26T22:12:59.203Z,7.82
2023-03-26T22:15:31.059Z,8.70
2023-03-26T22:18:01.842Z,8.94
2023-03-26T22:20:30.444Z,8.93
2023-03-26T22:23:00.476Z,7.88
2023-03-26T22:25:29.162Z,8.64
2023-03-26T22:27:57.635Z,8.15
2023-03-26T22:30:27.293Z,8.97
2023-03-26T22:32:55.896Z,8.28
2023-03-26T22:35:26.052Z,8.53
2023-03-26T22:38:00.831Z,7.60
2023-03-26T22:40:29.676Z,7.95
2023-03-26T22:42:58.228Z,8.08
2023-03-26T22:45:27.824Z,8.79
2023-03-26T22:48:03.003Z,8.94
2023-03-26T22:50:32.858Z,8.83
2023-03-26T22:53:01.630Z,8.71
2023-03-26T22:55:30.253Z,8.90
2023-03-26T22:57:58.868Z,9.05
2023-03-26T23:00:27.745Z,8.69
2023-03-26T23:03:00.003Z,8.68
2023-03-26T23:05:29.450Z,8.64
2023-03-26T23:07:57.904Z,8.84
2023-03-26T23:10:26.497Z,8.48
2023-03-26T23:12:54.962Z,8.52
2023-03-26T23:15:25.781Z,8.53
2023-03-26T23:17:55.305Z,8.77
2023-03-26T23:20:23.967Z,8.43
2023-03-26T23:22:52.593Z,8.32
2023-03-26T23:25:21.215Z,8.31
2023-03-26T23:27:50.618Z,8.23
2023-03-26T23:30:19.504Z,8.31
2023-03-26T23:32:48.047Z,8.56
2023-03-26T23:35:16.575Z,8.43
2023-03-26T23:37:45.011Z,8.53
2023-03-26T23:40:13.749Z,8.59
2023-03-26T23:42:42.649Z,8.52
2023-03-26T23:45:12.222Z,8.65
2023-03-26T23:47:42.260Z,8.68
2023-03-26T23:50:11.539Z,8.64
2023-03-26T23:52:40.009Z,8.59
2023-03-26T23:55:08.786Z,8.56
2023-03-26T23:57:37.293Z,8.27
